createdAt,value
2019-02-23T00:01:16.549Z,2.40
2019-02-23T00:03:43.772Z,2.50
2019-02-23T00:06:10.995Z,2.60
2019-02-23T00:08:38.211Z,2.70
2019-02-23T00:11:05.774Z,2.70
2019-02-23T00:13:33.334Z,2.70
2019-02-23T00:16:00.898Z,2.80
2019-02-23T00:18:28.119Z,2.80
2019-02-23T00:20:55.381Z,2.80
2019-02-23T00:23:22.707Z,2.70
2019-02-23T00:25:50.308Z,2.80
2019-02-23T00:28:17.872Z,2.90
2019-02-23T00:30:45.188Z,3.10
2019-02-23T00:33:12.431Z,3.20
2019-02-23T00:35:39.972Z,3.30
2019-02-23T00:38:07.235Z,3.30
2019-02-23T00:40:35.028Z,3.50
2019-02-23T00:43:02.626Z,3.60
2019-02-23T00:45:29.863Z,3.70
2019-02-23T00:47:57.436Z,3.70
2019-02-23T00:50:26.152Z,3.70
2019-02-23T00:52:53.673Z,3.60
2019-02-23T00:55:21.217Z,3.50
2019-02-23T00:57:48.777Z,3.50
2019-02-23T01:00:16.035Z,3.50
2019-02-23T01:02:43.587Z,3.40
2019-02-23T01:05:10.835Z,3.40
2019-02-23T01:07:38.052Z,3.30
2019-02-23T01:10:07.140Z,3.30
2019-02-23T01:12:34.645Z,3.40
2019-02-23T01:15:01.873Z,3.40
2019-02-23T01:17:29.451Z,3.50
2019-02-23T01:19:56.729Z,3.60
2019-02-23T01:22:24.785Z,3.60
2019-02-23T01:24:52.004Z,3.60
2019-02-23T01:27:19.228Z,3.50
2019-02-23T01:29:46.735Z,3.70
2019-02-23T01:32:14.048Z,3.60
2019-02-23T01:34:41.267Z,3.70
2019-02-23T01:37:08.487Z,3.60
2019-02-23T01:39:35.707Z,3.60
2019-02-23T01:42:03.204Z,3.70
2019-02-23T01:44:30.756Z,3.60
2019-02-23T01:46:57.979Z,3.60
2019-02-23T01:49:25.204Z,3.70
2019-02-23T01:51:52.555Z,3.90
2019-02-23T01:54:19.773Z,4.00
2019-02-23T01:56:47.021Z,4.20
2019-02-23T01:59:14.265Z,4.20
2019-02-23T02:01:41.823Z,4.20
2019-02-23T02:04:09.041Z,4.10
2019-02-23T02:06:36.282Z,4.00
2019-02-23T02:09:04.811Z,4.00
2019-02-23T02:11:32.058Z,4.00
2019-02-23T02:13:59.279Z,3.90
2019-02-23T02:16:26.977Z,3.90
2019-02-23T02:18:54.541Z,4.00
2019-02-23T02:21:21.779Z,3.90
2019-02-23T02:23:49.000Z,3.90
2019-02-23T02:26:16.245Z,4.00
2019-02-23T02:28:43.747Z,4.00
2019-02-23T02:31:11.009Z,4.10
2019-02-23T02:34:14.486Z,4.10
2019-02-23T02:36:42.165Z,4.10
2019-02-23T02:39:11.113Z,4.20
2019-02-23T02:41:38.721Z,4.20
2019-02-23T02:44:06.276Z,4.20
2019-02-23T02:46:33.832Z,4.30
2019-02-23T02:49:01.391Z,4.40
2019-02-23T02:51:28.609Z,4.40
2019-02-23T02:53:56.096Z,4.40
2019-02-23T02:56:23.315Z,4.30
2019-02-23T02:58:50.567Z,4.30
2019-02-23T03:01:17.784Z,4.30
2019-02-23T03:03:45.105Z,4.10
2019-02-23T03:06:12.664Z,4.10
2019-02-23T03:08:40.232Z,4.20
2019-02-23T03:11:07.741Z,4.20
2019-02-23T03:13:34.960Z,4.40
2019-02-23T03:16:02.176Z,4.40
2019-02-23T03:18:29.950Z,4.40
2019-02-23T03:20:57.504Z,4.40
2019-02-23T03:23:24.755Z,4.30
2019-02-23T03:25:52.072Z,4.20
2019-02-23T03:28:19.349Z,4.20
2019-02-23T03:30:46.662Z,4.10
2019-02-23T03:33:13.905Z,4.10
2019-02-23T03:35:41.133Z,4.10
2019-02-23T03:38:08.372Z,4.20
2019-02-23T03:40:35.600Z,4.30
2019-02-23T03:43:03.200Z,4.30
2019-02-23T03:45:30.422Z,4.40
2019-02-23T03:47:57.668Z,4.50
2019-02-23T03:50:25.268Z,4.50
2019-02-23T03:52:52.845Z,4.40
2019-02-23T03:55:20.059Z,4.30
2019-02-23T03:57:47.336Z,4.50
2019-02-23T04:00:14.558Z,4.40
2019-02-23T04:02:42.128Z,4.40
2019-02-23T04:05:09.436Z,4.30
2019-02-23T04:07:36.677Z,4.30
2019-02-23T04:10:04.336Z,4.30
2019-02-23T04:12:31.557Z,4.30
2019-02-23T04:14:58.776Z,4.30
2019-02-23T04:17:25.996Z,4.30
2019-02-23T04:19:53.491Z,4.30
2019-02-23T04:22:20.721Z,4.20
2019-02-23T04:24:47.944Z,4.20
2019-02-23T04:27:15.159Z,4.20
2019-02-23T04:29:42.707Z,4.10
2019-02-23T04:32:09.929Z,4.10
2019-02-23T04:34:37.158Z,4.10
2019-02-23T04:37:04.373Z,4.10
2019-02-23T04:39:31.493Z,4.10
2019-02-23T04:41:59.070Z,4.00
2019-02-23T04:44:26.298Z,4.10
2019-02-23T04:46:53.776Z,3.90
2019-02-23T04:49:20.998Z,4.00
2019-02-23T04:51:48.240Z,4.00
2019-02-23T04:54:15.460Z,3.90
2019-02-23T04:56:42.783Z,4.00
2019-02-23T04:59:10.348Z,4.00
2019-02-23T05:01:37.568Z,3.90
2019-02-23T05:04:04.788Z,3.90
2019-02-23T05:06:32.009Z,3.90
2019-02-23T05:08:59.270Z,4.00
2019-02-23T05:11:26.486Z,4.00
2019-02-23T05:13:53.720Z,4.00
2019-02-23T05:16:21.311Z,3.90
2019-02-23T05:18:48.867Z,3.90
2019-02-23T05:21:26.033Z,3.90
2019-02-23T05:23:45.325Z,4.00
2019-02-23T05:26:12.566Z,3.90
2019-02-23T05:28:40.137Z,3.90
2019-02-23T05:31:07.684Z,4.00
2019-02-23T05:33:34.916Z,4.00
2019-02-23T05:36:02.152Z,3.90
2019-02-23T05:38:29.387Z,4.00
2019-02-23T05:40:56.620Z,3.90
2019-02-23T05:43:24.156Z,3.90
2019-02-23T05:45:51.520Z,3.90
2019-02-23T05:48:21.460Z,3.80
2019-02-23T05:50:48.691Z,3.60
2019-02-23T05:53:16.227Z,3.60
2019-02-23T05:55:43.473Z,3.60
2019-02-23T05:58:11.259Z,3.50
2019-02-23T06:00:38.480Z,3.50
2019-02-23T06:03:05.734Z,3.40
2019-02-23T06:05:33.920Z,3.30
2019-02-23T06:08:01.168Z,3.10
2019-02-23T06:10:28.663Z,3.10
2019-02-23T06:12:55.971Z,2.90
2019-02-23T06:15:23.208Z,2.80
2019-02-23T06:17:50.450Z,2.70
2019-02-23T06:20:17.948Z,2.70
2019-02-23T06:22:46.897Z,2.70
2019-02-23T06:25:14.360Z,2.60
2019-02-23T06:27:41.691Z,2.50
2019-02-23T06:30:10.375Z,2.50
2019-02-23T06:32:38.191Z,2.60
2019-02-23T06:35:06.424Z,2.60
2019-02-23T06:37:33.950Z,2.40
2019-02-23T06:40:01.165Z,2.30
2019-02-23T06:42:28.388Z,2.30
2019-02-23T06:44:55.611Z,2.20
2019-02-23T06:47:23.140Z,2.20
2019-02-23T06:49:50.368Z,2.30
2019-02-23T06:52:17.973Z,2.30
2019-02-23T06:54:45.515Z,2.20
2019-02-23T06:57:12.974Z,2.30
2019-02-23T06:59:41.239Z,2.30
2019-02-23T07:02:08.477Z,2.40
2019-02-23T07:04:36.052Z,2.40
2019-02-23T07:07:03.281Z,2.50
2019-02-23T07:09:30.601Z,2.40
2019-02-23T07:11:57.921Z,2.40
2019-02-23T07:14:25.463Z,2.50
2019-02-23T07:16:52.587Z,2.60
2019-02-23T07:19:20.279Z,2.80
2019-02-23T07:21:47.496Z,2.90
2019-02-23T07:24:15.087Z,3.00
2019-02-23T07:26:42.339Z,3.10
2019-02-23T07:29:09.905Z,3.40
2019-02-23T07:31:37.134Z,3.60
2019-02-23T07:34:04.386Z,4.20
2019-02-23T07:36:31.606Z,4.90
2019-02-23T07:38:59.123Z,5.40
2019-02-23T07:41:27.191Z,5.20
2019-02-23T07:43:55.279Z,6.10
2019-02-23T07:46:22.929Z,5.80
2019-02-23T07:48:50.147Z,5.70
2019-02-23T07:51:17.452Z,6.30
2019-02-23T07:53:44.723Z,6.00
2019-02-23T07:56:11.967Z,5.40
2019-02-23T07:58:39.180Z,4.80
2019-02-23T08:01:06.417Z,5.00
2019-02-23T08:03:33.746Z,5.20
2019-02-23T08:06:00.974Z,5.10
2019-02-23T08:08:28.293Z,5.20
2019-02-23T08:10:55.522Z,5.20
2019-02-23T08:13:22.758Z,5.20
2019-02-23T08:15:49.976Z,5.00
2019-02-23T08:18:17.206Z,4.90
2019-02-23T08:20:44.432Z,4.60
2019-02-23T08:23:12.026Z,4.60
2019-02-23T08:25:39.564Z,4.90
2019-02-23T08:28:06.791Z,5.00
2019-02-23T08:30:34.372Z,4.90
2019-02-23T08:33:01.605Z,5.20
2019-02-23T08:35:28.832Z,5.10
2019-02-23T08:37:56.337Z,5.40
2019-02-23T08:40:23.887Z,5.80
2019-02-23T08:42:51.140Z,5.70
2019-02-23T08:45:18.360Z,5.60
2019-02-23T08:47:45.952Z,5.70
2019-02-23T08:50:13.196Z,5.90
2019-02-23T08:52:48.627Z,5.70
2019-02-23T08:55:09.469Z,5.60
2019-02-23T08:57:36.696Z,5.90
2019-02-23T09:00:05.042Z,5.70
2019-02-23T09:02:32.280Z,6.40
2019-02-23T09:04:59.539Z,7.20
2019-02-23T09:07:26.772Z,7.30
2019-02-23T09:09:53.995Z,6.80
2019-02-23T09:12:21.291Z,7.00
2019-02-23T09:14:48.692Z,7.20
2019-02-23T09:17:15.932Z,6.70
2019-02-23T09:19:43.500Z,7.00
2019-02-23T09:22:10.780Z,6.90
2019-02-23T09:24:38.313Z,7.10
2019-02-23T09:27:05.890Z,7.20
2019-02-23T09:29:33.448Z,7.10
2019-02-23T09:32:00.849Z,6.90
2019-02-23T09:34:28.449Z,7.20
2019-02-23T09:36:55.772Z,6.90
2019-02-23T09:39:23.360Z,6.90
2019-02-23T09:41:50.916Z,7.20
2019-02-23T09:44:18.149Z,7.50
2019-02-23T09:46:45.397Z,7.40
2019-02-23T09:49:12.893Z,7.70
2019-02-23T09:51:40.281Z,7.90
2019-02-23T09:54:07.610Z,8.40
2019-02-23T09:56:34.861Z,8.20
2019-02-23T09:59:02.589Z,8.20
2019-02-23T10:01:30.264Z,8.30
2019-02-23T10:03:57.583Z,8.60
2019-02-23T10:06:24.838Z,9.00
2019-02-23T10:08:52.052Z,9.00
2019-02-23T10:11:19.352Z,8.80
2019-02-23T10:13:46.624Z,8.60
2019-02-23T10:16:13.885Z,9.00
2019-02-23T10:18:41.104Z,9.60
2019-02-23T10:21:08.348Z,9.40
2019-02-23T10:23:35.571Z,9.60
2019-02-23T10:26:03.087Z,9.60
2019-02-23T10:28:30.312Z,9.30
2019-02-23T10:30:57.944Z,9.60
2019-02-23T10:33:25.273Z,9.30
2019-02-23T10:35:52.509Z,9.30
2019-02-23T10:38:19.728Z,9.60
2019-02-23T10:40:46.963Z,9.90
2019-02-23T10:43:14.464Z,9.60
2019-02-23T10:45:42.028Z,10.30
2019-02-23T10:48:09.583Z,10.30
2019-02-23T10:50:36.815Z,10.20
2019-02-23T10:53:04.512Z,10.30
2019-02-23T10:55:32.060Z,9.90
2019-02-23T10:57:59.611Z,9.60
2019-02-23T11:00:27.165Z,9.80
2019-02-23T11:02:54.731Z,9.80
2019-02-23T11:05:22.395Z,9.30
2019-02-23T11:07:49.777Z,9.70
2019-02-23T11:10:18.744Z,10.20
2019-02-23T11:12:45.989Z,9.90
2019-02-23T11:15:13.624Z,10.40
2019-02-23T11:17:40.952Z,10.60
2019-02-23T11:20:09.048Z,10.40
2019-02-23T11:22:36.304Z,10.40
2019-02-23T11:25:04.504Z,10.20
2019-02-23T11:27:32.063Z,10.60
2019-02-23T11:29:59.625Z,10.60
2019-02-23T11:32:27.185Z,10.80
2019-02-23T11:34:54.400Z,11.30
2019-02-23T11:37:21.659Z,10.70
2019-02-23T11:39:48.880Z,11.00
2019-02-23T11:42:16.247Z,11.40
2019-02-23T11:44:43.869Z,11.60
2019-02-23T11:47:11.419Z,12.10
2019-02-23T11:49:38.640Z,11.60
2019-02-23T11:52:06.169Z,11.20
2019-02-23T11:54:33.680Z,11.20
2019-02-23T11:57:00.931Z,11.90
2019-02-23T11:59:28.153Z,12.40
2019-02-23T12:01:55.376Z,12.40
2019-02-23T12:04:22.601Z,12.10
2019-02-23T12:06:49.830Z,12.20
2019-02-23T12:09:17.084Z,11.80
2019-02-23T12:11:44.332Z,12.00
2019-02-23T12:14:11.791Z,12.20
2019-02-23T12:16:39.012Z,12.30
2019-02-23T12:19:06.244Z,11.70
2019-02-23T12:21:33.756Z,12.30
2019-02-23T12:24:05.936Z,12.80
2019-02-23T12:26:30.109Z,12.70
2019-02-23T12:28:57.333Z,12.40
2019-02-23T12:31:24.818Z,11.80
2019-02-23T12:33:52.368Z,11.40
2019-02-23T12:36:19.586Z,11.10
2019-02-23T12:38:47.176Z,11.60
2019-02-23T12:41:14.419Z,12.00
2019-02-23T12:43:42.023Z,11.80
2019-02-23T12:46:09.256Z,11.30
2019-02-23T12:48:36.514Z,11.40
2019-02-23T12:51:04.175Z,11.30
2019-02-23T12:53:31.713Z,11.00
2019-02-23T12:55:58.931Z,11.50
2019-02-23T12:58:26.230Z,11.20
2019-02-23T13:00:54.185Z,11.10
2019-02-23T13:03:21.449Z,11.00
2019-02-23T13:05:48.762Z,11.20
2019-02-23T13:08:16.018Z,11.50
2019-02-23T13:10:43.333Z,11.20
2019-02-23T13:13:34.604Z,10.80
2019-02-23T13:16:13.288Z,10.70
2019-02-23T13:19:23.085Z,11.40
2019-02-23T13:22:27.919Z,11.40
2019-02-23T13:25:22.396Z,11.00
2019-02-23T13:28:14.535Z,11.10
2019-02-23T13:31:22.749Z,10.70
2019-02-23T13:34:24.820Z,10.40
2019-02-23T13:37:29.461Z,10.30
2019-02-23T13:40:22.534Z,10.40
2019-02-23T13:43:05.319Z,10.60
2019-02-23T13:46:02.130Z,10.20
2019-02-23T13:49:00.923Z,9.80
2019-02-23T13:52:40.500Z,9.80
2019-02-23T13:56:00.519Z,9.50
2019-02-23T13:58:38.380Z,9.50
2019-02-23T14:01:22.183Z,9.50
2019-02-23T14:04:37.050Z,9.80
2019-02-23T14:08:04.564Z,9.70
2019-02-23T14:11:00.363Z,9.40
2019-02-23T14:13:56.422Z,9.50
2019-02-23T14:17:08.737Z,9.40
2019-02-23T14:20:08.844Z,9.50
2019-02-23T14:23:07.689Z,9.30
2019-02-23T14:25:51.056Z,9.10
2019-02-23T14:28:32.855Z,9.00
2019-02-23T14:31:42.148Z,9.00
2019-02-23T14:34:35.352Z,9.10
2019-02-23T14:37:26.567Z,9.20
2019-02-23T14:40:14.436Z,9.20
2019-02-23T14:43:06.108Z,9.20
2019-02-23T14:46:03.621Z,9.00
2019-02-23T14:49:01.498Z,9.10
2019-02-23T14:52:01.068Z,9.10
2019-02-23T14:55:00.842Z,9.00
2019-02-23T14:58:17.109Z,8.70
2019-02-23T15:01:24.980Z,8.70
2019-02-23T15:04:40.252Z,8.50
2019-02-23T15:07:58.179Z,8.50
2019-02-23T15:11:24.232Z,8.50
2019-02-23T15:14:44.492Z,8.50
2019-02-23T15:17:43.655Z,8.50
2019-02-23T15:20:33.503Z,8.50
2019-02-23T15:23:26.504Z,8.40
2019-02-23T15:26:40.920Z,8.40
2019-02-23T15:29:46.540Z,8.20
2019-02-23T15:33:07.285Z,8.20
2019-02-23T15:36:11.590Z,8.20
2019-02-23T15:39:14.019Z,8.00
2019-02-23T15:42:02.906Z,8.00
2019-02-23T15:45:26.447Z,8.00
2019-02-23T15:48:44.415Z,8.00
2019-02-23T15:51:11.939Z,7.80
2019-02-23T15:53:39.707Z,7.80
2019-02-23T15:56:07.736Z,7.70
2019-02-23T15:58:35.295Z,7.80
2019-02-23T16:01:02.859Z,7.70
2019-02-23T16:03:30.417Z,7.60
2019-02-23T16:05:57.708Z,7.60
2019-02-23T16:08:24.945Z,7.60
2019-02-23T16:10:52.232Z,7.60
2019-02-23T16:13:19.836Z,7.50
2019-02-23T16:15:47.392Z,7.50
2019-02-23T16:18:14.631Z,7.30
2019-02-23T16:20:41.868Z,7.30
2019-02-23T16:23:09.451Z,7.20
2019-02-23T16:25:38.613Z,7.00
2019-02-23T16:28:06.107Z,7.00
2019-02-23T16:30:33.344Z,6.90
2019-02-23T16:33:00.592Z,6.90
2019-02-23T16:35:28.276Z,6.80
2019-02-23T16:37:55.516Z,6.70
2019-02-23T16:40:23.083Z,6.70
2019-02-23T16:42:50.327Z,6.60
2019-02-23T16:45:17.896Z,6.50
2019-02-23T16:47:45.259Z,6.40
2019-02-23T16:50:12.804Z,6.40
2019-02-23T16:52:40.364Z,6.40
2019-02-23T16:55:07.949Z,6.30
2019-02-23T16:57:35.488Z,6.30
2019-02-23T17:00:03.299Z,6.40
2019-02-23T17:02:30.909Z,6.30
2019-02-23T17:04:58.136Z,6.30
2019-02-23T17:07:25.719Z,6.20
2019-02-23T17:09:52.958Z,6.10
2019-02-23T17:12:20.649Z,6.10
2019-02-23T17:14:47.992Z,6.00
2019-02-23T17:17:15.336Z,6.10
2019-02-23T17:19:42.551Z,6.00
2019-02-23T17:22:09.816Z,5.90
2019-02-23T17:24:37.171Z,5.80
2019-02-23T17:27:04.760Z,5.80
2019-02-23T17:29:31.976Z,5.70
2019-02-23T17:31:59.227Z,5.70
2019-02-23T17:34:26.740Z,5.60
2019-02-23T17:36:54.040Z,5.60
2019-02-23T17:39:21.259Z,5.50
2019-02-23T17:41:48.779Z,5.40
2019-02-23T17:44:16.365Z,5.40
2019-02-23T17:46:43.593Z,5.20
2019-02-23T17:49:11.155Z,5.20
2019-02-23T17:51:38.712Z,5.20
2019-02-23T17:54:05.956Z,5.20
2019-02-23T17:56:33.213Z,5.00
2019-02-23T17:59:03.811Z,5.10
2019-02-23T18:01:31.536Z,5.00
2019-02-23T18:03:58.776Z,5.10
2019-02-23T18:06:26.011Z,5.00
2019-02-23T18:08:53.570Z,4.90
2019-02-23T18:11:20.799Z,5.00
2019-02-23T18:13:48.056Z,4.90
2019-02-23T18:16:15.344Z,4.80
2019-02-23T18:18:42.881Z,4.80
2019-02-23T18:21:10.115Z,4.80
2019-02-23T18:23:37.364Z,4.80
2019-02-23T18:26:04.947Z,4.80
2019-02-23T18:28:33.015Z,4.80
2019-02-23T18:31:00.576Z,4.80
2019-02-23T18:33:28.235Z,4.70
2019-02-23T18:35:55.811Z,4.60
2019-02-23T18:38:23.763Z,4.80
2019-02-23T18:40:50.991Z,4.70
2019-02-23T18:43:18.260Z,4.60
2019-02-23T18:45:47.636Z,4.60
2019-02-23T18:48:14.977Z,4.60
2019-02-23T18:50:42.629Z,4.50
2019-02-23T18:53:09.976Z,4.30
2019-02-23T18:55:41.164Z,4.50
2019-02-23T18:58:06.668Z,4.50
2019-02-23T19:00:33.896Z,4.40
2019-02-23T19:03:01.163Z,4.40
2019-02-23T19:05:28.381Z,4.40
2019-02-23T19:07:56.016Z,4.40
2019-02-23T19:10:23.260Z,4.40
2019-02-23T19:12:50.824Z,4.40
2019-02-23T19:15:18.383Z,4.30
2019-02-23T19:17:45.621Z,4.20
2019-02-23T19:20:13.187Z,4.20
2019-02-23T19:22:40.407Z,4.10
2019-02-23T19:25:08.467Z,4.10
2019-02-23T19:27:35.968Z,4.20
2019-02-23T19:30:03.738Z,4.00
2019-02-23T19:32:31.295Z,3.90
2019-02-23T19:34:58.857Z,3.90
2019-02-23T19:37:26.128Z,3.90
2019-02-23T19:39:53.443Z,4.00
2019-02-23T19:42:20.663Z,3.90
2019-02-23T19:44:47.907Z,3.90
2019-02-23T19:47:21.708Z,3.90
2019-02-23T19:49:51.259Z,4.00
2019-02-23T19:52:18.837Z,3.90
2019-02-23T19:54:46.105Z,3.80
2019-02-23T19:57:13.647Z,3.70
2019-02-23T19:59:41.200Z,3.60
2019-02-23T20:02:08.440Z,3.60
2019-02-23T20:04:36.021Z,3.60
2019-02-23T20:07:03.699Z,3.60
2019-02-23T20:09:31.007Z,3.50
2019-02-23T20:11:58.468Z,3.50
2019-02-23T20:14:26.048Z,3.50
2019-02-23T20:16:53.267Z,3.40
2019-02-23T20:19:20.487Z,3.40
2019-02-23T20:21:48.000Z,3.40
2019-02-23T20:24:15.455Z,3.40
2019-02-23T20:26:42.780Z,3.20
2019-02-23T20:29:09.995Z,3.30
2019-02-23T20:31:37.207Z,3.30
2019-02-23T20:34:04.767Z,3.20
2019-02-23T20:36:32.335Z,3.20
2019-02-23T20:38:59.618Z,3.10
2019-02-23T20:41:26.920Z,3.00
2019-02-23T20:43:54.191Z,3.00
2019-02-23T20:46:21.525Z,2.90
2019-02-23T20:48:49.203Z,2.90
2019-02-23T20:51:16.444Z,2.90
2019-02-23T20:53:43.695Z,2.90
2019-02-23T20:56:11.373Z,2.80
2019-02-23T20:58:38.623Z,2.80
2019-02-23T21:01:05.844Z,2.80
2019-02-23T21:03:33.432Z,2.70
2019-02-23T21:06:00.660Z,2.70
2019-02-23T21:08:28.028Z,2.70
2019-02-23T21:10:55.687Z,2.70
2019-02-23T21:13:23.259Z,2.60
2019-02-23T21:15:50.723Z,2.50
2019-02-23T21:18:18.276Z,2.60
2019-02-23T21:20:45.833Z,2.60
2019-02-23T21:23:13.056Z,2.50
2019-02-23T21:25:40.539Z,2.60
2019-02-23T21:28:08.106Z,2.50
2019-02-23T21:30:35.352Z,2.50
2019-02-23T21:33:02.597Z,2.40
2019-02-23T21:35:29.940Z,2.50
2019-02-23T21:37:57.164Z,2.60
2019-02-23T21:40:24.673Z,2.60
2019-02-23T21:42:51.984Z,2.60
2019-02-23T21:45:19.476Z,2.60
2019-02-23T21:47:46.689Z,2.70
2019-02-23T21:50:14.183Z,2.60
2019-02-23T21:52:41.746Z,2.40
2019-02-23T21:55:08.969Z,2.40
2019-02-23T21:57:36.553Z,2.50
2019-02-23T22:00:04.181Z,2.40
2019-02-23T22:02:31.867Z,2.40
2019-02-23T22:04:59.436Z,2.30
2019-02-23T22:07:26.660Z,2.30
2019-02-23T22:09:53.973Z,2.40
2019-02-23T22:12:21.192Z,2.40
2019-02-23T22:14:48.422Z,2.40
2019-02-23T22:17:15.641Z,2.50
2019-02-23T22:19:43.293Z,2.40
2019-02-23T22:22:10.525Z,2.40
2019-02-23T22:24:38.065Z,2.30
2019-02-23T22:27:05.629Z,2.40
2019-02-23T22:29:33.211Z,2.40
2019-02-23T22:32:00.851Z,2.40
2019-02-23T22:34:28.099Z,2.30
2019-02-23T22:36:57.500Z,2.30
2019-02-23T22:39:24.739Z,2.40
2019-02-23T22:41:51.986Z,2.40
2019-02-23T22:44:19.560Z,2.40
2019-02-23T22:46:47.121Z,2.30
2019-02-23T22:49:14.354Z,2.30
2019-02-23T22:51:41.952Z,2.30
2019-02-23T22:54:09.599Z,2.20
2019-02-23T22:56:36.820Z,2.10
2019-02-23T22:59:04.051Z,2.30
2019-02-23T23:01:31.962Z,2.30
2019-02-23T23:03:59.827Z,2.30
2019-02-23T23:06:27.388Z,2.40
2019-02-23T23:08:54.625Z,2.30
2019-02-23T23:11:21.849Z,2.30
2019-02-23T23:13:49.347Z,2.20
2019-02-23T23:16:16.575Z,2.10
2019-02-23T23:18:43.800Z,2.00
2019-02-23T23:21:11.023Z,2.00
2019-02-23T23:23:38.662Z,2.00
2019-02-23T23:26:06.219Z,2.00
2019-02-23T23:28:33.440Z,2.00
2019-02-23T23:31:01.031Z,2.00
2019-02-23T23:33:28.576Z,2.10
2019-02-23T23:35:55.804Z,2.10
2019-02-23T23:38:23.019Z,2.20
2019-02-23T23:40:50.572Z,2.10
2019-02-23T23:43:18.219Z,2.10
2019-02-23T23:45:45.453Z,2.00
2019-02-23T23:48:12.674Z,2.00
2019-02-23T23:50:39.895Z,1.90
2019-02-23T23:53:07.424Z,1.90
2019-02-23T23:55:34.663Z,1.90
2019-02-23T23:58:02.248Z,1.90
